createdAt,value
2022-09-30T00:03:24.795Z,100457.59
2022-09-30T00:07:36.353Z,100451.50
2022-09-30T00:11:47.858Z,100461.38
2022-09-30T00:16:00.083Z,100461.44
2022-09-30T00:20:11.715Z,100465.13
2022-09-30T00:24:23.234Z,100470.94
2022-09-30T00:28:35.287Z,100470.31
2022-09-30T00:32:46.754Z,100468.53
2022-09-30T00:36:58.319Z,100457.66
2022-09-30T00:41:09.830Z,100467.09
2022-09-30T00:45:21.706Z,100465.28
2022-09-30T00:49:33.423Z,100468.38
2022-09-30T00:53:54.923Z,100475.38
2022-09-30T00:58:09.737Z,100478.13
2022-09-30T01:02:21.353Z,100485.13
2022-09-30T01:06:32.920Z,100476.31
2022-09-30T01:10:45.497Z,100472.22
2022-09-30T01:14:58.803Z,100475.72
2022-09-30T01:19:27.021Z,100473.06
2022-09-30T01:23:59.188Z,100463.38
2022-09-30T01:28:33.216Z,100473.91
2022-09-30T01:33:07.319Z,100484.44
2022-09-30T01:37:32.889Z,100480.34
2022-09-30T01:41:54.400Z,100484.25
2022-09-30T01:46:15.990Z,100475.84
2022-09-30T01:50:35.050Z,100469.88
2022-09-30T01:54:59.604Z,100464.34
2022-09-30T01:59:18.384Z,100473.84
2022-09-30T02:03:41.761Z,100475.69
2022-09-30T02:07:58.803Z,100474.66
2022-09-30T02:12:15.389Z,100481.47
2022-09-30T02:16:39.857Z,100474.31
2022-09-30T02:21:04.544Z,100483.97
2022-09-30T02:25:22.876Z,100479.03
2022-09-30T02:29:39.495Z,100467.94
2022-09-30T02:33:57.439Z,100490.56
2022-09-30T02:38:15.424Z,100484.59
2022-09-30T02:42:29.392Z,100495.50
2022-09-30T02:47:01.727Z,100487.31
2022-09-30T02:51:32.405Z,100491.22
2022-09-30T02:56:05.253Z,100487.94
2022-09-30T03:00:16.870Z,100497.59
2022-09-30T03:04:33.971Z,100491.88
2022-09-30T03:08:46.847Z,100483.88
2022-09-30T03:13:08.828Z,100493.13
2022-09-30T03:17:37.742Z,100492.28
2022-09-30T03:22:21.636Z,100477.13
2022-09-30T03:27:12.242Z,100494.38
2022-09-30T03:31:27.679Z,100510.00
2022-09-30T03:36:07.076Z,100514.09
2022-09-30T03:40:36.939Z,100512.25
2022-09-30T03:44:57.587Z,100517.59
2022-09-30T03:49:14.687Z,100530.94
2022-09-30T03:53:28.473Z,100533.81
2022-09-30T03:57:40.120Z,100520.47
2022-09-30T04:01:52.812Z,100537.53
2022-09-30T04:06:08.631Z,100533.22
2022-09-30T04:10:20.186Z,100537.13
2022-09-30T04:14:31.771Z,100543.88
2022-09-30T04:18:43.746Z,100551.47
2022-09-30T04:23:00.866Z,100548.81
2022-09-30T04:27:12.454Z,100556.00
2022-09-30T04:31:25.069Z,100569.56
2022-09-30T04:35:37.517Z,100569.56
2022-09-30T04:39:49.109Z,100552.47
2022-09-30T04:44:06.053Z,100549.81
2022-09-30T04:48:17.649Z,100563.34
2022-09-30T04:52:29.313Z,100562.53
2022-09-30T04:56:40.884Z,100569.53
2022-09-30T05:00:52.672Z,100576.13
2022-09-30T05:05:04.603Z,100574.88
2022-09-30T05:09:16.330Z,100568.34
2022-09-30T05:13:34.135Z,100597.53
2022-09-30T05:17:49.378Z,100592.81
2022-09-30T05:22:00.946Z,100584.56
2022-09-30T05:26:13.083Z,100588.25
2022-09-30T05:30:24.785Z,100592.81
2022-09-30T05:34:38.229Z,100600.81
2022-09-30T05:38:53.415Z,100602.44
2022-09-30T05:43:05.015Z,100618.25
2022-09-30T05:47:17.287Z,100611.84
2022-09-30T05:51:28.845Z,100627.91
2022-09-30T05:55:40.443Z,100630.16
2022-09-30T05:59:52.002Z,100637.38
2022-09-30T06:04:03.610Z,100641.50
2022-09-30T06:08:16.051Z,100645.81
2022-09-30T06:12:28.799Z,100651.88
2022-09-30T06:16:40.489Z,100651.03
2022-09-30T06:20:52.653Z,100654.69
2022-09-30T06:25:05.918Z,100659.81
2022-09-30T06:29:17.717Z,100663.34
2022-09-30T06:33:29.510Z,100659.88
2022-09-30T06:37:41.882Z,100666.22
2022-09-30T06:41:53.530Z,100664.84
2022-09-30T06:46:17.745Z,100671.03
2022-09-30T06:50:34.065Z,100669.31
2022-09-30T06:54:47.131Z,100668.53
2022-09-30T06:58:58.750Z,100661.50
2022-09-30T07:03:24.222Z,100656.19
2022-09-30T07:07:36.693Z,100666.88
2022-09-30T07:11:48.787Z,100675.59
2022-09-30T07:16:00.454Z,100670.25
2022-09-30T07:20:11.994Z,100669.91
2022-09-30T07:24:23.447Z,100668.91
2022-09-30T07:28:36.384Z,100670.19
2022-09-30T07:32:48.184Z,100675.03
2022-09-30T07:36:59.693Z,100675.56
2022-09-30T07:41:17.368Z,100681.28
2022-09-30T07:45:28.885Z,100682.91
2022-09-30T07:49:42.353Z,100688.78
2022-09-30T07:53:57.637Z,100688.47
2022-09-30T07:58:10.915Z,100671.66
2022-09-30T08:02:24.433Z,100686.47
2022-09-30T08:06:38.765Z,100686.59
2022-09-30T08:10:50.237Z,100675.50
2022-09-30T08:15:01.728Z,100682.22
2022-09-30T08:19:16.570Z,100684.38
2022-09-30T08:23:29.522Z,100683.47
2022-09-30T08:27:41.042Z,100676.69
2022-09-30T08:31:53.065Z,100679.63
2022-09-30T08:36:06.472Z,100678.50
2022-09-30T08:40:27.721Z,100683.81
2022-09-30T08:44:46.290Z,100684.78
2022-09-30T08:49:20.757Z,100691.16
2022-09-30T08:53:37.763Z,100695.00
2022-09-30T08:57:50.584Z,100699.63
2022-09-30T09:02:33.132Z,100697.81
2022-09-30T09:07:29.405Z,100691.66
2022-09-30T09:12:01.212Z,100691.50
2022-09-30T09:16:33.126Z,100686.31
2022-09-30T09:20:55.763Z,100689.50
2022-09-30T09:25:18.446Z,100681.19
2022-09-30T09:30:07.268Z,100686.25
2022-09-30T09:34:18.775Z,100674.78
2022-09-30T09:38:50.380Z,100688.63
2022-09-30T09:43:26.202Z,100692.63
2022-09-30T09:47:40.597Z,100692.09
2022-09-30T09:52:11.611Z,100701.78
2022-09-30T09:56:32.046Z,100706.53
2022-09-30T10:00:46.971Z,100704.44
2022-09-30T10:05:03.409Z,100691.47
2022-09-30T10:09:27.254Z,100687.63
2022-09-30T10:13:38.662Z,100686.63
2022-09-30T10:18:00.753Z,100687.06
2022-09-30T10:22:18.189Z,100687.19
2022-09-30T10:26:29.712Z,100689.03
2022-09-30T10:30:55.550Z,100689.78
2022-09-30T10:35:20.540Z,100688.31
2022-09-30T10:39:41.688Z,100685.00
2022-09-30T10:43:55.969Z,100686.53
2022-09-30T10:48:19.097Z,100677.00
2022-09-30T10:53:12.576Z,100674.00
2022-09-30T10:57:31.708Z,100673.09
2022-09-30T11:02:05.892Z,100671.16
2022-09-30T11:06:18.473Z,100674.38
2022-09-30T11:11:27.551Z,100673.00
2022-09-30T11:16:14.947Z,100664.03
2022-09-30T11:20:36.353Z,100661.81
2022-09-30T11:24:50.305Z,100667.56
2022-09-30T11:29:38.841Z,100662.00
2022-09-30T11:34:09.021Z,100657.88
2022-09-30T11:38:48.402Z,100656.06
2022-09-30T11:43:34.250Z,100650.44
2022-09-30T11:48:28.220Z,100650.19
2022-09-30T11:52:58.999Z,100640.94
2022-09-30T11:57:28.518Z,100631.06
2022-09-30T12:01:44.731Z,100624.00
2022-09-30T12:06:03.151Z,100637.13
2022-09-30T12:10:22.724Z,100633.41
2022-09-30T12:15:04.980Z,100632.63
2022-09-30T12:19:25.646Z,100612.00
2022-09-30T12:23:46.379Z,100623.59
2022-09-30T12:28:27.715Z,100614.84
2022-09-30T12:33:03.494Z,100605.72
2022-09-30T12:37:41.737Z,100600.31
2022-09-30T12:42:24.932Z,100604.25
2022-09-30T12:46:54.576Z,100595.66
2022-09-30T12:51:07.763Z,100589.16
2022-09-30T12:55:32.096Z,100592.66
2022-09-30T12:59:52.659Z,100588.66
2022-09-30T13:04:04.057Z,100585.84
2022-09-30T13:08:22.745Z,100590.28
2022-09-30T13:12:43.104Z,100581.50
2022-09-30T13:17:06.644Z,100577.34
2022-09-30T13:21:23.337Z,100558.09
2022-09-30T13:25:54.389Z,100567.09
2022-09-30T13:30:17.934Z,100563.38
2022-09-30T13:34:35.438Z,100552.09
2022-09-30T13:39:06.730Z,100555.72
2022-09-30T13:43:24.154Z,100554.50
2022-09-30T13:48:11.032Z,100557.91
2022-09-30T13:52:27.357Z,100550.91
2022-09-30T13:56:40.775Z,100542.31
2022-09-30T14:00:59.683Z,100535.81
2022-09-30T14:05:36.985Z,100528.13
2022-09-30T14:10:09.461Z,100535.94
2022-09-30T14:15:01.198Z,100513.97
2022-09-30T14:19:42.342Z,100515.72
2022-09-30T14:24:00.242Z,100511.19
2022-09-30T14:28:18.731Z,100502.63
2022-09-30T14:32:47.706Z,100504.72
2022-09-30T14:36:59.486Z,100506.25
2022-09-30T14:41:18.297Z,100509.31
2022-09-30T14:45:33.023Z,100508.78
2022-09-30T14:49:44.822Z,100507.03
2022-09-30T14:54:02.389Z,100496.94
2022-09-30T14:58:21.446Z,100503.09
2022-09-30T15:02:32.948Z,100483.13
2022-09-30T15:06:48.380Z,100499.69
2022-09-30T15:10:59.892Z,100488.03
2022-09-30T15:15:36.972Z,100493.88
2022-09-30T15:19:50.172Z,100481.34
2022-09-30T15:24:02.748Z,100496.94
2022-09-30T15:28:14.456Z,100471.69
2022-09-30T15:32:29.627Z,100486.22
2022-09-30T15:36:41.556Z,100498.81
2022-09-30T15:41:10.010Z,100496.50
2022-09-30T15:45:21.558Z,100488.28
2022-09-30T15:49:45.416Z,100492.69
2022-09-30T15:54:00.439Z,100480.47
2022-09-30T15:58:35.775Z,100498.91
2022-09-30T16:02:47.336Z,100495.78
2022-09-30T16:07:10.958Z,100491.84
2022-09-30T16:11:30.463Z,100499.84
2022-09-30T16:15:41.989Z,100493.41
2022-09-30T16:20:07.810Z,100500.78
2022-09-30T16:24:22.238Z,100493.16
2022-09-30T16:28:34.452Z,100479.34
2022-09-30T16:32:50.508Z,100487.03
2022-09-30T16:37:12.172Z,100496.63
2022-09-30T16:41:25.661Z,100479.31
2022-09-30T16:45:38.261Z,100489.13
2022-09-30T16:49:51.021Z,100473.13
2022-09-30T16:54:02.622Z,100480.50
2022-09-30T16:58:14.253Z,100472.09
2022-09-30T17:02:26.098Z,100483.78
2022-09-30T17:06:37.737Z,100479.19
2022-09-30T17:10:50.126Z,100477.81
2022-09-30T17:15:01.809Z,100480.56
2022-09-30T17:19:14.022Z,100465.88
2022-09-30T17:23:26.022Z,100464.81
2022-09-30T17:27:38.667Z,100463.16
2022-09-30T17:31:50.713Z,100455.25
2022-09-30T17:36:07.721Z,100452.53
2022-09-30T17:40:37.895Z,100455.75
2022-09-30T17:44:49.547Z,100458.97
2022-09-30T17:49:01.050Z,100461.41
2022-09-30T17:53:16.832Z,100455.94
2022-09-30T17:57:28.399Z,100452.69
2022-09-30T18:01:41.774Z,100446.72
2022-09-30T18:05:59.863Z,100448.31
2022-09-30T18:10:11.437Z,100448.53
2022-09-30T18:14:22.950Z,100438.78
2022-09-30T18:18:35.120Z,100453.09
2022-09-30T18:22:46.763Z,100450.00
2022-09-30T18:26:58.247Z,100450.78
2022-09-30T18:31:10.603Z,100455.66
2022-09-30T18:35:24.413Z,100443.66
2022-09-30T18:39:38.026Z,100431.16
2022-09-30T18:43:50.698Z,100427.59
2022-09-30T18:48:02.258Z,100418.88
2022-09-30T18:52:13.841Z,100423.97
2022-09-30T18:56:29.579Z,100416.88
2022-09-30T19:00:41.342Z,100409.53
2022-09-30T19:04:54.147Z,100393.03
2022-09-30T19:09:08.984Z,100390.84
2022-09-30T19:13:21.335Z,100394.13
2022-09-30T19:17:32.994Z,100382.19
2022-09-30T19:21:44.733Z,100388.72
2022-09-30T19:25:56.258Z,100369.47
2022-09-30T19:30:10.590Z,100369.78
2022-09-30T19:34:30.922Z,100361.41
2022-09-30T19:38:45.325Z,100354.63
2022-09-30T19:42:57.354Z,100355.75
2022-09-30T19:47:08.832Z,100352.28
2022-09-30T19:51:20.366Z,100333.81
2022-09-30T19:55:42.303Z,100343.56
2022-09-30T20:00:02.836Z,100340.63
2022-09-30T20:04:20.932Z,100328.19
2022-09-30T20:08:34.862Z,100307.34
2022-09-30T20:12:46.408Z,100306.00
2022-09-30T20:16:57.904Z,100290.84
2022-09-30T20:21:11.560Z,100286.78
2022-09-30T20:25:23.140Z,100279.22
2022-09-30T20:29:34.612Z,100259.97
2022-09-30T20:33:46.657Z,100268.91
2022-09-30T20:37:59.257Z,100260.50
2022-09-30T20:42:10.734Z,100259.44
2022-09-30T20:46:23.350Z,100255.91
2022-09-30T20:50:35.188Z,100240.78
2022-09-30T20:54:46.849Z,100246.72
2022-09-30T20:58:59.188Z,100237.81
2022-09-30T21:03:13.395Z,100229.66
2022-09-30T21:07:28.271Z,100228.31
2022-09-30T21:11:42.305Z,100216.97
2022-09-30T21:16:01.653Z,100215.63
2022-09-30T21:20:13.487Z,100213.19
2022-09-30T21:24:25.912Z,100204.81
2022-09-30T21:28:38.118Z,100212.09
2022-09-30T21:32:49.659Z,100210.72
2022-09-30T21:37:01.842Z,100189.91
2022-09-30T21:41:25.648Z,100199.66
2022-09-30T21:46:29.585Z,100209.13
2022-09-30T21:50:41.193Z,100191.81
2022-09-30T21:54:55.791Z,100194.81
2022-09-30T21:59:07.328Z,100188.28
2022-09-30T22:03:19.211Z,100186.41
2022-09-30T22:07:32.956Z,100174.75
2022-09-30T22:11:44.592Z,100167.19
2022-09-30T22:16:03.812Z,100188.56
2022-09-30T22:20:15.434Z,100166.06
2022-09-30T22:24:27.051Z,100157.28
2022-09-30T22:28:39.382Z,100156.94
2022-09-30T22:33:11.153Z,100147.66
2022-09-30T22:37:41.256Z,100152.69
2022-09-30T22:41:54.912Z,100131.03
2022-09-30T22:46:08.375Z,100134.75
2022-09-30T22:50:19.900Z,100118.72
2022-09-30T22:54:32.027Z,100127.81
2022-09-30T22:58:44.871Z,100108.00
2022-09-30T23:02:56.538Z,100112.56
2022-09-30T23:07:08.207Z,100111.69
2022-09-30T23:11:21.664Z,100098.66
2022-09-30T23:15:33.334Z,100091.38
2022-09-30T23:19:44.874Z,100065.06
2022-09-30T23:23:56.500Z,100075.81
2022-09-30T23:28:08.032Z,100071.69
2022-09-30T23:32:19.665Z,100056.53
2022-09-30T23:36:35.098Z,100057.56
2022-09-30T23:40:48.270Z,100053.19
2022-09-30T23:44:59.773Z,100043.22
2022-09-30T23:49:11.250Z,100058.06
2022-09-30T23:53:23.480Z,100057.00
2022-09-30T23:57:35.005Z,100032.13
